sensor_id;sensor_type;location;lat;lon;timestamp;pressure;altitude;pressure_sealevel;temperature;humidity
69574;BME280;62840;52.366;5.980;2023-02-28T00:01:54;103122.38;;;1.98;68.11
69574;BME280;62840;52.366;5.980;2023-02-28T00:04:20;103125.84;;;2.00;67.95
69574;BME280;62840;52.366;5.980;2023-02-28T00:06:46;103120.56;;;2.01;68.24
69574;BME280;62840;52.366;5.980;2023-02-28T00:09:11;103112.66;;;2.03;68.32
69574;BME280;62840;52.366;5.980;2023-02-28T00:11:37;103113.50;;;2.05;68.21
69574;BME280;62840;52.366;5.980;2023-02-28T00:14:03;103102.06;;;2.07;68.11
69574;BME280;62840;52.366;5.980;2023-02-28T00:16:31;103102.03;;;2.10;68.07
69574;BME280;62840;52.366;5.980;2023-02-28T00:18:57;103101.16;;;2.13;68.31
69574;BME280;62840;52.366;5.980;2023-02-28T00:21:23;103106.38;;;2.15;68.29
69574;BME280;62840;52.366;5.980;2023-02-28T00:23:49;103105.47;;;2.17;68.12
69574;BME280;62840;52.366;5.980;2023-02-28T00:26:15;103097.56;;;2.17;68.11
69574;BME280;62840;52.366;5.980;2023-02-28T00:28:41;103104.59;;;2.18;68.25
69574;BME280;62840;52.366;5.980;2023-02-28T00:31:06;103117.72;;;2.21;68.50
69574;BME280;62840;52.366;5.980;2023-02-28T00:33:35;103115.94;;;2.25;68.28
69574;BME280;62840;52.366;5.980;2023-02-28T00:36:02;103114.19;;;2.24;68.27
69574;BME280;62840;52.366;5.980;2023-02-28T00:38:30;103115.03;;;2.27;68.39
69574;BME280;62840;52.366;5.980;2023-02-28T00:40:56;103106.22;;;2.28;68.38
69574;BME280;62840;52.366;5.980;2023-02-28T00:43:21;103104.50;;;2.29;68.59
69574;BME280;62840;52.366;5.980;2023-02-28T00:45:47;103102.69;;;2.31;68.57
69574;BME280;62840;52.366;5.980;2023-02-28T00:48:13;103106.16;;;2.34;68.62
69574;BME280;62840;52.366;5.980;2023-02-28T00:50:41;103105.28;;;2.36;68.44
69574;BME280;62840;52.366;5.980;2023-02-28T00:53:07;103112.28;;;2.37;68.41
69574;BME280;62840;52.366;5.980;2023-02-28T00:55:32;103108.75;;;2.38;68.67
69574;BME280;62840;52.366;5.980;2023-02-28T00:57:58;103109.59;;;2.40;68.38
69574;BME280;62840;52.366;5.980;2023-02-28T01:00:24;103103.47;;;2.41;68.38
69574;BME280;62840;52.366;5.980;2023-02-28T01:02:50;103113.09;;;2.42;68.74
69574;BME280;62840;52.366;5.980;2023-02-28T01:05:15;103111.31;;;2.44;68.37
69574;BME280;62840;52.366;5.980;2023-02-28T01:07:44;103107.81;;;2.45;68.67
69574;BME280;62840;52.366;5.980;2023-02-28T01:10:10;103109.53;;;2.47;68.58
69574;BME280;62840;52.366;5.980;2023-02-28T01:12:36;103108.63;;;2.48;68.37
69574;BME280;62840;52.366;5.980;2023-02-28T01:15:03;103108.63;;;2.50;68.46
69574;BME280;62840;52.366;5.980;2023-02-28T01:17:29;103109.47;;;2.52;68.71
69574;BME280;62840;52.366;5.980;2023-02-28T01:19:55;103111.19;;;2.53;68.64
69574;BME280;62840;52.366;5.980;2023-02-28T01:22:21;103109.47;;;2.52;68.69
69574;BME280;62840;52.366;5.980;2023-02-28T01:24:50;103109.47;;;2.52;68.70
69574;BME280;62840;52.366;5.980;2023-02-28T01:27:15;103102.44;;;2.51;68.57
69574;BME280;62840;52.366;5.980;2023-02-28T01:29:41;103107.69;;;2.54;68.77
69574;BME280;62840;52.366;5.980;2023-02-28T01:32:07;103107.69;;;2.54;68.55
69574;BME280;62840;52.366;5.980;2023-02-28T01:34:33;103102.38;;;2.57;68.72
69574;BME280;62840;52.366;5.980;2023-02-28T01:36:58;103104.13;;;2.58;68.62
69574;BME280;62840;52.366;5.980;2023-02-28T01:39:24;103102.31;;;2.60;68.43
69574;BME280;62840;52.366;5.980;2023-02-28T01:41:52;103099.69;;;2.60;68.53
69574;BME280;62840;52.366;5.980;2023-02-28T01:47:22;103094.41;;;2.62;68.87
69574;BME280;62840;52.366;5.980;2023-02-28T01:49:52;103097.03;;;2.63;68.80
69574;BME280;62840;52.366;5.980;2023-02-28T01:52:19;103093.50;;;2.64;68.64
69574;BME280;62840;52.366;5.980;2023-02-28T01:54:47;103084.72;;;2.65;68.64
69574;BME280;62840;52.366;5.980;2023-02-28T01:57:21;103095.25;;;2.65;68.57
69574;BME280;62840;52.366;5.980;2023-02-28T01:59:52;103083.84;;;2.65;68.66
69574;BME280;62840;52.366;5.980;2023-02-28T02:02:22;103082.97;;;2.64;68.88
69574;BME280;62840;52.366;5.980;2023-02-28T02:04:52;103081.22;;;2.63;68.92
69574;BME280;62840;52.366;5.980;2023-02-28T02:07:22;103085.59;;;2.64;69.01
69574;BME280;62840;52.366;5.980;2023-02-28T02:09:50;103082.97;;;2.64;68.81
69574;BME280;62840;52.366;5.980;2023-02-28T02:12:31;103086.44;;;2.66;68.72
69574;BME280;62840;52.366;5.980;2023-02-28T02:15:15;103083.81;;;2.68;69.03
69574;BME280;62840;52.366;5.980;2023-02-28T02:17:49;103082.03;;;2.68;68.64
69574;BME280;62840;52.366;5.980;2023-02-28T02:20:38;103081.16;;;2.69;68.94
69574;BME280;62840;52.366;5.980;2023-02-28T02:23:44;103075.88;;;2.69;69.08
69574;BME280;62840;52.366;5.980;2023-02-28T02:26:55;103075.88;;;2.69;69.11
69574;BME280;62840;52.366;5.980;2023-02-28T02:29:50;103082.88;;;2.70;68.91
69574;BME280;62840;52.366;5.980;2023-02-28T02:32:58;103082.88;;;2.70;68.87
69574;BME280;62840;52.366;5.980;2023-02-28T02:35:40;103087.28;;;2.70;69.20
69574;BME280;62840;52.366;5.980;2023-02-28T02:38:19;103079.41;;;2.68;69.16
69574;BME280;62840;52.366;5.980;2023-02-28T02:41:03;103077.66;;;2.67;69.21
69574;BME280;62840;52.366;5.980;2023-02-28T02:43:36;103084.66;;;2.68;69.00
69574;BME280;62840;52.366;5.980;2023-02-28T02:46:12;103086.44;;;2.69;69.02
69574;BME280;62840;52.366;5.980;2023-02-28T02:48:45;103079.38;;;2.70;69.00
69574;BME280;62840;52.366;5.980;2023-02-28T02:51:17;103081.09;;;2.72;68.67
69574;BME280;62840;52.366;5.980;2023-02-28T02:53:49;103073.25;;;2.68;68.99
69574;BME280;62840;52.366;5.980;2023-02-28T02:56:23;103079.31;;;2.74;68.71
69574;BME280;62840;52.366;5.980;2023-02-28T02:58:54;103074.91;;;2.75;68.68
69574;BME280;62840;52.366;5.980;2023-02-28T03:01:28;103077.56;;;2.75;68.74
69574;BME280;62840;52.366;5.980;2023-02-28T03:03:58;103081.03;;;2.75;68.72
69574;BME280;62840;52.366;5.980;2023-02-28T03:06:29;103090.72;;;2.77;68.80
69574;BME280;62840;52.366;5.980;2023-02-28T03:08:55;103093.31;;;2.78;68.99
69574;BME280;62840;52.366;5.980;2023-02-28T03:11:21;103094.22;;;2.77;69.08
69574;BME280;62840;52.366;5.980;2023-02-28T03:13:54;103093.34;;;2.77;68.65
69574;BME280;62840;52.366;5.980;2023-02-28T03:16:55;103098.63;;;2.77;68.89
69574;BME280;62840;52.366;5.980;2023-02-28T03:19:41;103109.16;;;2.77;68.90
69574;BME280;62840;52.366;5.980;2023-02-28T03:22:38;103098.63;;;2.75;68.81
69574;BME280;62840;52.366;5.980;2023-02-28T03:25:18;103100.41;;;2.74;68.99
69574;BME280;62840;52.366;5.980;2023-02-28T03:27:59;103104.75;;;2.75;69.08
69574;BME280;62840;52.366;5.980;2023-02-28T03:30:35;103097.75;;;2.74;69.25
69574;BME280;62840;52.366;5.980;2023-02-28T03:33:10;103102.13;;;2.75;68.95
69574;BME280;62840;52.366;5.980;2023-02-28T03:35:43;103102.13;;;2.75;69.26
69574;BME280;62840;52.366;5.980;2023-02-28T03:38:19;103100.34;;;2.78;69.24
69574;BME280;62840;52.366;5.980;2023-02-28T03:40:53;103108.25;;;2.78;69.15
69574;BME280;62840;52.366;5.980;2023-02-28T03:43:28;103103.84;;;2.80;69.28
69574;BME280;62840;52.366;5.980;2023-02-28T03:45:59;103102.97;;;2.81;69.18
69574;BME280;62840;52.366;5.980;2023-02-28T03:48:35;103091.50;;;2.82;69.17
69574;BME280;62840;52.366;5.980;2023-02-28T03:51:08;103103.78;;;2.83;69.33
69574;BME280;62840;52.366;5.980;2023-02-28T03:53:45;103107.31;;;2.82;69.24
69574;BME280;62840;52.366;5.980;2023-02-28T03:56:17;103111.69;;;2.83;69.41
69574;BME280;62840;52.366;5.980;2023-02-28T03:58:51;103107.28;;;2.85;69.42
69574;BME280;62840;52.366;5.980;2023-02-28T04:01:25;103098.50;;;2.86;69.35
69574;BME280;62840;52.366;5.980;2023-02-28T04:03:57;103096.72;;;2.85;69.41
69574;BME280;62840;52.366;5.980;2023-02-28T04:06:23;103096.72;;;2.85;69.18
69574;BME280;62840;52.366;5.980;2023-02-28T04:08:52;103093.22;;;2.86;69.37
69574;BME280;62840;52.366;5.980;2023-02-28T04:11:23;103100.22;;;2.87;69.31
69574;BME280;62840;52.366;5.980;2023-02-28T04:13:57;103097.63;;;2.85;69.35
69574;BME280;62840;52.366;5.980;2023-02-28T04:16:23;103099.34;;;2.86;69.42
69574;BME280;62840;52.366;5.980;2023-02-28T04:18:49;103105.50;;;2.87;69.61
69574;BME280;62840;52.366;5.980;2023-02-28T04:21:15;103097.59;;;2.87;69.71
69574;BME280;62840;52.366;5.980;2023-02-28T04:23:40;103091.44;;;2.88;69.33
69574;BME280;62840;52.366;5.980;2023-02-28T04:26:09;103096.66;;;2.91;69.60
69574;BME280;62840;52.366;5.980;2023-02-28T04:28:37;103095.78;;;2.92;69.49
69574;BME280;62840;52.366;5.980;2023-02-28T04:31:04;103094.00;;;2.91;69.53
69574;BME280;62840;52.366;5.980;2023-02-28T04:33:31;103094.88;;;2.91;69.45
69574;BME280;62840;52.366;5.980;2023-02-28T04:35:59;103089.69;;;2.87;69.60
69574;BME280;62840;52.366;5.980;2023-02-28T04:38:25;103092.28;;;2.90;69.59
69574;BME280;62840;52.366;5.980;2023-02-28T04:40:51;103089.66;;;2.90;69.56
69574;BME280;62840;52.366;5.980;2023-02-28T04:43:19;103087.03;;;2.90;69.55
69574;BME280;62840;52.366;5.980;2023-02-28T04:45:45;103088.75;;;2.89;69.17
69574;BME280;62840;52.366;5.980;2023-02-28T04:48:10;103100.19;;;2.90;69.19
69574;BME280;62840;52.366;5.980;2023-02-28T04:50:36;103092.31;;;2.88;69.44
69574;BME280;62840;52.366;5.980;2023-02-28T04:53:02;103089.69;;;2.87;69.09
69574;BME280;62840;52.366;5.980;2023-02-28T04:55:28;103093.22;;;2.86;69.18
69574;BME280;62840;52.366;5.980;2023-02-28T04:57:53;103094.09;;;2.85;69.13
69574;BME280;62840;52.366;5.980;2023-02-28T05:00:22;103098.50;;;2.84;69.06
69574;BME280;62840;52.366;5.980;2023-02-28T05:02:48;103097.63;;;2.84;68.97
69574;BME280;62840;52.366;5.980;2023-02-28T05:05:13;103094.13;;;2.83;68.58
69574;BME280;62840;52.366;5.980;2023-02-28T05:07:39;103096.78;;;2.82;68.62
69574;BME280;62840;52.366;5.980;2023-02-28T05:10:06;103095.88;;;2.83;68.75
69574;BME280;62840;52.366;5.980;2023-02-28T05:12:32;103102.06;;;2.82;68.52
69574;BME280;62840;52.366;5.980;2023-02-28T05:14:58;103098.56;;;2.80;68.37
69574;BME280;62840;52.366;5.980;2023-02-28T05:17:26;103109.09;;;2.80;68.48
69574;BME280;62840;52.366;5.980;2023-02-28T05:19:52;103104.69;;;2.80;68.28
69574;BME280;62840;52.366;5.980;2023-02-28T05:22:17;103100.31;;;2.81;68.43
69574;BME280;62840;52.366;5.980;2023-02-28T05:24:43;103095.06;;;2.81;68.43
69574;BME280;62840;52.366;5.980;2023-02-28T05:27:09;103092.41;;;2.81;67.99
69574;BME280;62840;52.366;5.980;2023-02-28T05:29:35;103091.50;;;2.82;68.22
69574;BME280;62840;52.366;5.980;2023-02-28T05:32:01;103093.25;;;2.83;68.18
69574;BME280;62840;52.366;5.980;2023-02-28T05:34:29;103088.03;;;2.80;67.82
69574;BME280;62840;52.366;5.980;2023-02-28T05:36:55;103096.84;;;2.77;68.01
69574;BME280;62840;52.366;5.980;2023-02-28T05:39:21;103093.38;;;2.73;68.12
69574;BME280;62840;52.366;5.980;2023-02-28T05:41:46;103095.16;;;2.71;68.36
69574;BME280;62840;52.366;5.980;2023-02-28T05:44:12;103098.69;;;2.70;68.38
69574;BME280;62840;52.366;5.980;2023-02-28T05:46:38;103096.97;;;2.69;68.31
69574;BME280;62840;52.366;5.980;2023-02-28T05:49:04;103097.84;;;2.68;68.47
69574;BME280;62840;52.366;5.980;2023-02-28T05:51:32;103100.47;;;2.68;68.58
69574;BME280;62840;52.366;5.980;2023-02-28T05:54:01;103098.75;;;2.67;68.03
69574;BME280;62840;52.366;5.980;2023-02-28T05:56:28;103096.97;;;2.66;68.34
69574;BME280;62840;52.366;5.980;2023-02-28T05:58:54;103096.09;;;2.67;68.45
69574;BME280;62840;52.366;5.980;2023-02-28T06:01:23;103102.25;;;2.66;68.35
69574;BME280;62840;52.366;5.980;2023-02-28T06:03:55;103100.53;;;2.65;68.42
69574;BME280;62840;52.366;5.980;2023-02-28T06:06:21;103098.75;;;2.64;68.35
69574;BME280;62840;52.366;5.980;2023-02-28T06:08:49;103103.16;;;2.64;68.00
69574;BME280;62840;52.366;5.980;2023-02-28T06:11:15;103107.56;;;2.63;67.90
69574;BME280;62840;52.366;5.980;2023-02-28T06:13:41;103101.44;;;2.63;68.18
69574;BME280;62840;52.366;5.980;2023-02-28T06:16:08;103103.19;;;2.62;68.25
69574;BME280;62840;52.366;5.980;2023-02-28T06:18:35;103105.81;;;2.62;67.89
69574;BME280;62840;52.366;5.980;2023-02-28T06:21:01;103096.19;;;2.60;67.82
69574;BME280;62840;52.366;5.980;2023-02-28T06:23:27;103110.28;;;2.59;67.73
69574;BME280;62840;52.366;5.980;2023-02-28T06:25:55;103106.78;;;2.58;67.88
69574;BME280;62840;52.366;5.980;2023-02-28T06:28:21;103099.72;;;2.59;67.52
69574;BME280;62840;52.366;5.980;2023-02-28T06:30:47;103097.06;;;2.60;67.81
69574;BME280;62840;52.366;5.980;2023-02-28T06:33:12;103104.09;;;2.61;67.99
69574;BME280;62840;52.366;5.980;2023-02-28T06:35:38;103102.31;;;2.60;67.77
69574;BME280;62840;52.366;5.980;2023-02-28T06:38:04;103102.31;;;2.60;67.76
69574;BME280;62840;52.366;5.980;2023-02-28T06:40:29;103113.75;;;2.59;67.66
69574;BME280;62840;52.366;5.980;2023-02-28T06:42:58;103116.41;;;2.59;67.77
69574;BME280;62840;52.366;5.980;2023-02-28T06:45:23;103119.94;;;2.58;67.91
69574;BME280;62840;52.366;5.980;2023-02-28T06:47:49;103118.16;;;2.59;67.63
69574;BME280;62840;52.366;5.980;2023-02-28T06:50:15;103127.81;;;2.60;67.86
69574;BME280;62840;52.366;5.980;2023-02-28T06:52:41;103130.44;;;2.61;67.98
69574;BME280;62840;52.366;5.980;2023-02-28T06:55:07;103131.28;;;2.62;67.98
69574;BME280;62840;52.366;5.980;2023-02-28T06:57:35;103134.78;;;2.64;67.76
69574;BME280;62840;52.366;5.980;2023-02-28T07:00:07;103130.38;;;2.64;67.86
69574;BME280;62840;52.366;5.980;2023-02-28T07:02:35;103130.38;;;2.64;67.57
69574;BME280;62840;52.366;5.980;2023-02-28T07:05:01;103132.13;;;2.65;67.66
69574;BME280;62840;52.366;5.980;2023-02-28T07:07:27;103136.50;;;2.66;67.42
69574;BME280;62840;52.366;5.980;2023-02-28T07:09:53;103139.13;;;2.66;67.72
69574;BME280;62840;52.366;5.980;2023-02-28T07:12:18;103134.72;;;2.68;67.78
69574;BME280;62840;52.366;5.980;2023-02-28T07:14:44;103129.44;;;2.70;67.70
69574;BME280;62840;52.366;5.980;2023-02-28T07:17:12;103139.06;;;2.72;67.67
69574;BME280;62840;52.366;5.980;2023-02-28T07:19:38;103145.22;;;2.71;67.41
69574;BME280;62840;52.366;5.980;2023-02-28T07:22:04;103144.34;;;2.72;67.52
69574;BME280;62840;52.366;5.980;2023-02-28T07:24:30;103144.34;;;2.72;67.54
69574;BME280;62840;52.366;5.980;2023-02-28T07:26:56;103153.09;;;2.74;67.37
69574;BME280;62840;52.366;5.980;2023-02-28T07:29:22;103145.13;;;2.78;67.43
69574;BME280;62840;52.366;5.980;2023-02-28T07:31:48;103150.41;;;2.81;67.35
69574;BME280;62840;52.366;5.980;2023-02-28T07:34:16;103150.34;;;2.84;67.57
69574;BME280;62840;52.366;5.980;2023-02-28T07:36:42;103150.34;;;2.84;67.27
69574;BME280;62840;52.366;5.980;2023-02-28T07:39:08;103149.44;;;2.85;67.58
69574;BME280;62840;52.366;5.980;2023-02-28T07:41:33;103150.28;;;2.87;67.50
69574;BME280;62840;52.366;5.980;2023-02-28T07:43:59;103157.31;;;2.88;67.63
69574;BME280;62840;52.366;5.980;2023-02-28T07:46:26;103158.19;;;2.90;67.53
69574;BME280;62840;52.366;5.980;2023-02-28T07:48:51;103146.72;;;2.92;67.33
69574;BME280;62840;52.366;5.980;2023-02-28T07:51:20;103156.41;;;2.92;67.31
69574;BME280;62840;52.366;5.980;2023-02-28T07:53:47;103170.41;;;2.94;67.28
69574;BME280;62840;52.366;5.980;2023-02-28T07:56:13;103170.38;;;2.97;67.34
69574;BME280;62840;52.366;5.980;2023-02-28T07:58:39;103164.19;;;3.00;67.33
69574;BME280;62840;52.366;5.980;2023-02-28T08:01:05;103175.56;;;3.03;67.09
69574;BME280;62840;52.366;5.980;2023-02-28T08:03:32;103168.50;;;3.05;67.22
69574;BME280;62840;52.366;5.980;2023-02-28T08:05:59;103166.69;;;3.10;67.21
69574;BME280;62840;52.366;5.980;2023-02-28T08:08:27;103165.75;;;3.13;67.17
69574;BME280;62840;52.366;5.980;2023-02-28T08:10:53;103167.47;;;3.15;67.06
69574;BME280;62840;52.366;5.980;2023-02-28T08:13:19;103174.44;;;3.21;67.29
69574;BME280;62840;52.366;5.980;2023-02-28T08:15:44;103168.19;;;3.27;67.59
69574;BME280;62840;52.366;5.980;2023-02-28T08:18:10;103173.41;;;3.33;67.26
69574;BME280;62840;52.366;5.980;2023-02-28T08:20:36;103166.28;;;3.38;67.14
69574;BME280;62840;52.366;5.980;2023-02-28T08:23:01;103162.66;;;3.45;67.19
69574;BME280;62840;52.366;5.980;2023-02-28T08:25:30;103168.69;;;3.52;66.92
69574;BME280;62840;52.366;5.980;2023-02-28T08:27:56;103175.63;;;3.59;66.79
69574;BME280;62840;52.366;5.980;2023-02-28T08:30:21;103174.66;;;3.65;66.55
69574;BME280;62840;52.366;5.980;2023-02-28T08:32:47;103177.22;;;3.71;66.48
69574;BME280;62840;52.366;5.980;2023-02-28T08:35:13;103173.66;;;3.72;66.42
69574;BME280;62840;52.366;5.980;2023-02-28T08:37:39;103172.72;;;3.74;66.13
69574;BME280;62840;52.366;5.980;2023-02-28T08:40:06;103173.59;;;3.76;66.05
69574;BME280;62840;52.366;5.980;2023-02-28T08:42:36;103171.78;;;3.78;65.81
69574;BME280;62840;52.366;5.980;2023-02-28T08:45:03;103169.22;;;3.74;65.40
69574;BME280;62840;52.366;5.980;2023-02-28T08:47:29;103179.78;;;3.74;65.49
69574;BME280;62840;52.366;5.980;2023-02-28T08:49:55;103173.59;;;3.76;65.27
69574;BME280;62840;52.366;5.980;2023-02-28T08:52:20;103176.22;;;3.78;65.33
69574;BME280;62840;52.366;5.980;2023-02-28T08:54:46;103183.19;;;3.82;65.26
69574;BME280;62840;52.366;5.980;2023-02-28T08:57:12;103181.41;;;3.84;65.02
69574;BME280;62840;52.366;5.980;2023-02-28T08:59:40;103180.47;;;3.87;65.07
69574;BME280;62840;52.366;5.980;2023-02-28T09:02:08;103165.50;;;3.87;64.44
69574;BME280;62840;52.366;5.980;2023-02-28T09:04:34;103172.50;;;3.88;64.43
69574;BME280;62840;52.366;5.980;2023-02-28T09:07:00;103175.13;;;3.88;64.35
69574;BME280;62840;52.366;5.980;2023-02-28T09:09:26;103173.41;;;3.87;63.24
69574;BME280;62840;52.366;5.980;2023-02-28T09:11:51;103174.28;;;3.86;62.73
69574;BME280;62840;52.366;5.980;2023-02-28T09:14:17;103169.06;;;3.83;62.66
69574;BME280;62840;52.366;5.980;2023-02-28T09:16:45;103171.72;;;3.82;62.26
69574;BME280;62840;52.366;5.980;2023-02-28T09:19:11;103170.00;;;3.80;61.84
69574;BME280;62840;52.366;5.980;2023-02-28T09:21:37;103177.94;;;3.79;61.83
69574;BME280;62840;52.366;5.980;2023-02-28T09:24:03;103177.94;;;3.79;61.48
69574;BME280;62840;52.366;5.980;2023-02-28T09:26:30;103190.25;;;3.80;61.57
69574;BME280;62840;52.366;5.980;2023-02-28T09:28:55;103183.22;;;3.79;60.21
69574;BME280;62840;52.366;5.980;2023-02-28T09:31:23;103179.72;;;3.78;60.74
69574;BME280;62840;52.366;5.980;2023-02-28T09:33:54;103183.28;;;3.76;60.31
69574;BME280;62840;52.366;5.980;2023-02-28T09:36:22;103180.56;;;3.79;60.37
69574;BME280;62840;52.366;5.980;2023-02-28T09:38:50;103180.56;;;3.80;60.12
69574;BME280;62840;52.366;5.980;2023-02-28T09:41:17;103186.69;;;3.81;60.20
69574;BME280;62840;52.366;5.980;2023-02-28T09:43:48;103179.69;;;3.80;60.36
69574;BME280;62840;52.366;5.980;2023-02-28T09:46:28;103181.44;;;3.81;60.08
69574;BME280;62840;52.366;5.980;2023-02-28T09:49:02;103178.75;;;3.84;60.38
69574;BME280;62840;52.366;5.980;2023-02-28T09:51:43;103184.75;;;3.92;60.36
69574;BME280;62840;52.366;5.980;2023-02-28T09:54:17;103180.31;;;3.96;59.39
69574;BME280;62840;52.366;5.980;2023-02-28T09:56:48;103188.16;;;4.00;59.59
69574;BME280;62840;52.366;5.980;2023-02-28T09:59:26;103174.91;;;4.02;59.02
69574;BME280;62840;52.366;5.980;2023-02-28T10:02:08;103179.31;;;4.01;58.84
69574;BME280;62840;52.366;5.980;2023-02-28T10:04:51;103177.53;;;4.04;58.79
69574;BME280;62840;52.366;5.980;2023-02-28T10:07:36;103173.09;;;4.06;58.17
69574;BME280;62840;52.366;5.980;2023-02-28T10:10:22;103169.50;;;4.08;58.10
69574;BME280;62840;52.366;5.980;2023-02-28T10:12:54;103172.97;;;4.12;58.15
69574;BME280;62840;52.366;5.980;2023-02-28T10:15:25;103168.56;;;4.14;57.87
69574;BME280;62840;52.366;5.980;2023-02-28T10:17:58;103161.47;;;4.16;58.16
69574;BME280;62840;52.366;5.980;2023-02-28T10:20:31;103171.97;;;4.19;57.85
69574;BME280;62840;52.366;5.980;2023-02-28T10:23:04;103176.34;;;4.20;57.49
69574;BME280;62840;52.366;5.980;2023-02-28T10:25:38;103183.31;;;4.24;56.98
69574;BME280;62840;52.366;5.980;2023-02-28T10:28:10;103176.22;;;4.26;57.00
69574;BME280;62840;52.366;5.980;2023-02-28T10:30:40;103170.94;;;4.28;57.15
69574;BME280;62840;52.366;5.980;2023-02-28T10:33:17;103178.84;;;4.29;56.07
69574;BME280;62840;52.366;5.980;2023-02-28T10:35:50;103170.03;;;4.29;56.58
69574;BME280;62840;52.366;5.980;2023-02-28T10:38:18;103170.00;;;4.30;56.70
69574;BME280;62840;52.366;5.980;2023-02-28T10:40:45;103166.41;;;4.34;55.55
69574;BME280;62840;52.366;5.980;2023-02-28T10:43:22;103169.91;;;4.36;55.92
69574;BME280;62840;52.366;5.980;2023-02-28T10:46:00;103162.81;;;4.38;55.64
69574;BME280;62840;52.366;5.980;2023-02-28T10:48:32;103160.09;;;4.41;55.80
69574;BME280;62840;52.366;5.980;2023-02-28T10:51:03;103156.50;;;4.46;55.86
69574;BME280;62840;52.366;5.980;2023-02-28T10:53:33;103155.53;;;4.50;55.53
69574;BME280;62840;52.366;5.980;2023-02-28T10:56:04;103160.75;;;4.53;55.79
69574;BME280;62840;52.366;5.980;2023-02-28T10:58:44;103148.31;;;4.58;55.59
69574;BME280;62840;52.366;5.980;2023-02-28T11:01:15;103151.81;;;4.60;55.77
69574;BME280;62840;52.366;5.980;2023-02-28T11:03:42;103148.19;;;4.64;54.99
69574;BME280;62840;52.366;5.980;2023-02-28T11:06:15;103151.69;;;4.66;54.99
69574;BME280;62840;52.366;5.980;2023-02-28T11:08:45;103143.66;;;4.71;55.30
69574;BME280;62840;52.366;5.980;2023-02-28T11:11:13;103148.81;;;4.77;55.11
69574;BME280;62840;52.366;5.980;2023-02-28T11:13:39;103142.53;;;4.82;54.42
69574;BME280;62840;52.366;5.980;2023-02-28T11:16:07;103152.97;;;4.89;55.22
69574;BME280;62840;52.366;5.980;2023-02-28T11:18:39;103152.81;;;4.98;54.99
69574;BME280;62840;52.366;5.980;2023-02-28T11:21:15;103147.31;;;5.05;54.98
69574;BME280;62840;52.366;5.980;2023-02-28T11:23:44;103148.91;;;5.14;54.85
69574;BME280;62840;52.366;5.980;2023-02-28T11:26:10;103140.84;;;5.19;55.25
69574;BME280;62840;52.366;5.980;2023-02-28T11:28:38;103133.63;;;5.27;55.01
69574;BME280;62840;52.366;5.980;2023-02-28T11:31:15;103130.72;;;5.38;55.42
69574;BME280;62840;52.366;5.980;2023-02-28T11:33:44;103126.09;;;5.46;54.00
69574;BME280;62840;52.366;5.980;2023-02-28T11:36:17;103123.31;;;5.52;54.42
69574;BME280;62840;52.366;5.980;2023-02-28T11:38:45;103128.47;;;5.58;53.93
69574;BME280;62840;52.366;5.980;2023-02-28T11:41:25;103122.19;;;5.62;53.56
69574;BME280;62840;52.366;5.980;2023-02-28T11:44:16;103114.06;;;5.68;53.82
69574;BME280;62840;52.366;5.980;2023-02-28T11:46:58;103112.31;;;5.69;53.54
69574;BME280;62840;52.366;5.980;2023-02-28T11:49:32;103103.44;;;5.72;53.25
69574;BME280;62840;52.366;5.980;2023-02-28T11:52:18;103105.16;;;5.73;52.80
69574;BME280;62840;52.366;5.980;2023-02-28T11:55:14;103103.44;;;5.72;53.22
69574;BME280;62840;52.366;5.980;2023-02-28T11:57:56;103098.03;;;5.75;53.46
69574;BME280;62840;52.366;5.980;2023-02-28T12:00:48;103099.72;;;5.77;52.84
69574;BME280;62840;52.366;5.980;2023-02-28T12:03:33;103108.56;;;5.78;52.20
69574;BME280;62840;52.366;5.980;2023-02-28T12:06:19;103097.88;;;5.81;52.90
69574;BME280;62840;52.366;5.980;2023-02-28T12:09:02;103102.13;;;5.86;52.93
69574;BME280;62840;52.366;5.980;2023-02-28T12:11:48;103095.81;;;5.92;52.00
69574;BME280;62840;52.366;5.980;2023-02-28T12:15:00;103092.09;;;5.99;51.83
69574;BME280;62840;52.366;5.980;2023-02-28T12:17:50;103095.47;;;6.04;52.63
69574;BME280;62840;52.366;5.980;2023-02-28T12:20:30;103096.16;;;6.13;52.27
69574;BME280;62840;52.366;5.980;2023-02-28T12:23:17;103089.75;;;6.20;52.38
69574;BME280;62840;52.366;5.980;2023-02-28T12:26:02;103105.41;;;6.29;51.86
69574;BME280;62840;52.366;5.980;2023-02-28T12:28:41;103092.91;;;6.34;51.15
69574;BME280;62840;52.366;5.980;2023-02-28T12:31:17;103086.66;;;6.37;51.67
69574;BME280;62840;52.366;5.980;2023-02-28T12:33:49;103078.63;;;6.38;51.14
69574;BME280;62840;52.366;5.980;2023-02-28T12:36:19;103085.59;;;6.42;51.18
69574;BME280;62840;52.366;5.980;2023-02-28T12:38:48;103079.38;;;6.43;50.79
69574;BME280;62840;52.366;5.980;2023-02-28T12:41:26;103076.63;;;6.46;51.45
69574;BME280;62840;52.366;5.980;2023-02-28T12:44:00;103076.53;;;6.49;51.13
69574;BME280;62840;52.366;5.980;2023-02-28T12:46:36;103075.63;;;6.50;51.23
69574;BME280;62840;52.366;5.980;2023-02-28T12:49:10;103072.88;;;6.54;50.94
69574;BME280;62840;52.366;5.980;2023-02-28T12:51:41;103073.81;;;6.53;50.36
69574;BME280;62840;52.366;5.980;2023-02-28T12:54:16;103073.72;;;6.56;51.14
69574;BME280;62840;52.366;5.980;2023-02-28T12:56:56;103072.72;;;6.60;50.30
69574;BME280;62840;52.366;5.980;2023-02-28T12:59:37;103056.81;;;6.60;50.32
69574;BME280;62840;52.366;5.980;2023-02-28T13:09:04;103065.41;;;6.68;49.51
69574;BME280;62840;52.366;5.980;2023-02-28T13:11:39;103056.41;;;6.72;49.68
69574;BME280;62840;52.366;5.980;2023-02-28T13:14:20;103057.16;;;6.77;49.51
69574;BME280;62840;52.366;5.980;2023-02-28T13:16:58;103048.13;;;6.83;50.10
69574;BME280;62840;52.366;5.980;2023-02-28T13:19:29;103047.16;;;6.85;49.56
69574;BME280;62840;52.366;5.980;2023-02-28T13:21:58;103044.44;;;6.88;49.55
69574;BME280;62840;52.366;5.980;2023-02-28T13:24:46;103038.13;;;6.92;49.14
69574;BME280;62840;52.366;5.980;2023-02-28T13:27:34;103044.28;;;6.93;48.50
69574;BME280;62840;52.366;5.980;2023-02-28T13:33:21;103045.13;;;6.93;49.11